sensor_id;sensor_type;location;lat;lon;timestamp;temperature;humidity
7876;DHT22;69649;53.712;9.680;2024-03-17T00:00:05;3.20;74.20
7876;DHT22;69649;53.712;9.680;2024-03-17T00:02:31;3.10;74.30
7876;DHT22;69649;53.712;9.680;2024-03-17T00:04:57;3.10;74.30
7876;DHT22;69649;53.712;9.680;2024-03-17T00:07:22;3.10;74.30
7876;DHT22;69649;53.712;9.680;2024-03-17T00:09:48;3.10;74.20
7876;DHT22;69649;53.712;9.680;2024-03-17T00:12:14;3.10;74.20
7876;DHT22;69649;53.712;9.680;2024-03-17T00:14:40;3.10;74.40
7876;DHT22;69649;53.712;9.680;2024-03-17T00:17:06;3.10;74.20
7876;DHT22;69649;53.712;9.680;2024-03-17T00:19:31;3.10;74.10
7876;DHT22;69649;53.712;9.680;2024-03-17T00:21:57;3.10;74.10
7876;DHT22;69649;53.712;9.680;2024-03-17T00:24:23;3.10;74.10
7876;DHT22;69649;53.712;9.680;2024-03-17T00:26:49;3.10;74.20
7876;DHT22;69649;53.712;9.680;2024-03-17T00:29:15;3.10;74.20
7876;DHT22;69649;53.712;9.680;2024-03-17T00:31:41;3.20;74.50
7876;DHT22;69649;53.712;9.680;2024-03-17T00:34:07;3.30;74.40
7876;DHT22;69649;53.712;9.680;2024-03-17T00:36:34;3.30;74.10
7876;DHT22;69649;53.712;9.680;2024-03-17T00:39:00;3.30;74.10
7876;DHT22;69649;53.712;9.680;2024-03-17T00:41:26;3.40;73.80
7876;DHT22;69649;53.712;9.680;2024-03-17T00:43:52;3.50;73.60
7876;DHT22;69649;53.712;9.680;2024-03-17T00:46:21;3.50;73.40
7876;DHT22;69649;53.712;9.680;2024-03-17T00:48:49;3.50;73.80
7876;DHT22;69649;53.712;9.680;2024-03-17T00:51:34;3.50;73.70
7876;DHT22;69649;53.712;9.680;2024-03-17T00:54:00;3.60;73.80
7876;DHT22;69649;53.712;9.680;2024-03-17T00:56:26;3.70;74.40
7876;DHT22;69649;53.712;9.680;2024-03-17T00:58:53;3.70;74.60
7876;DHT22;69649;53.712;9.680;2024-03-17T01:01:19;3.80;74.30
7876;DHT22;69649;53.712;9.680;2024-03-17T01:03:45;3.90;73.90
7876;DHT22;69649;53.712;9.680;2024-03-17T01:06:11;3.90;73.30
7876;DHT22;69649;53.712;9.680;2024-03-17T01:08:57;3.80;72.90
7876;DHT22;69649;53.712;9.680;2024-03-17T01:11:23;3.70;72.60
7876;DHT22;69649;53.712;9.680;2024-03-17T01:13:50;3.70;72.20
7876;DHT22;69649;53.712;9.680;2024-03-17T01:16:16;3.70;71.90
7876;DHT22;69649;53.712;9.680;2024-03-17T01:18:42;3.70;71.80
7876;DHT22;69649;53.712;9.680;2024-03-17T01:21:09;3.60;71.90
7876;DHT22;69649;53.712;9.680;2024-03-17T01:23:35;3.50;72.50
7876;DHT22;69649;53.712;9.680;2024-03-17T01:26:00;3.50;72.70
7876;DHT22;69649;53.712;9.680;2024-03-17T01:28:26;3.40;73.10
7876;DHT22;69649;53.712;9.680;2024-03-17T01:30:52;3.50;73.00
7876;DHT22;69649;53.712;9.680;2024-03-17T01:33:18;3.50;72.70
7876;DHT22;69649;53.712;9.680;2024-03-17T01:35:44;3.30;72.80
7876;DHT22;69649;53.712;9.680;2024-03-17T01:38:09;3.30;73.00
7876;DHT22;69649;53.712;9.680;2024-03-17T01:40:38;3.30;72.60
7876;DHT22;69649;53.712;9.680;2024-03-17T01:43:04;3.30;72.70
7876;DHT22;69649;53.712;9.680;2024-03-17T01:45:32;3.30;73.00
7876;DHT22;69649;53.712;9.680;2024-03-17T01:47:59;3.30;72.90
7876;DHT22;69649;53.712;9.680;2024-03-17T01:50:37;3.20;72.60
7876;DHT22;69649;53.712;9.680;2024-03-17T01:53:05;3.10;73.00
7876;DHT22;69649;53.712;9.680;2024-03-17T01:55:32;3.10;73.20
7876;DHT22;69649;53.712;9.680;2024-03-17T01:57:59;3.00;73.60
7876;DHT22;69649;53.712;9.680;2024-03-17T02:00:25;2.90;73.60
7876;DHT22;69649;53.712;9.680;2024-03-17T02:03:12;2.80;73.80
7876;DHT22;69649;53.712;9.680;2024-03-17T02:05:38;2.70;73.90
7876;DHT22;69649;53.712;9.680;2024-03-17T02:08:05;2.60;74.20
7876;DHT22;69649;53.712;9.680;2024-03-17T02:10:33;2.50;74.10
7876;DHT22;69649;53.712;9.680;2024-03-17T02:12:59;2.50;74.20
7876;DHT22;69649;53.712;9.680;2024-03-17T02:15:45;2.50;74.10
7876;DHT22;69649;53.712;9.680;2024-03-17T02:18:11;2.50;74.00
7876;DHT22;69649;53.712;9.680;2024-03-17T02:20:37;2.40;74.20
7876;DHT22;69649;53.712;9.680;2024-03-17T02:23:21;2.40;74.40
7876;DHT22;69649;53.712;9.680;2024-03-17T02:25:47;2.40;74.30
7876;DHT22;69649;53.712;9.680;2024-03-17T02:28:14;2.40;74.00
7876;DHT22;69649;53.712;9.680;2024-03-17T02:30:39;2.40;73.80
7876;DHT22;69649;53.712;9.680;2024-03-17T02:33:05;2.40;73.60
7876;DHT22;69649;53.712;9.680;2024-03-17T02:35:31;2.30;73.60
7876;DHT22;69649;53.712;9.680;2024-03-17T02:37:57;2.20;73.90
7876;DHT22;69649;53.712;9.680;2024-03-17T02:40:22;2.20;74.20
7876;DHT22;69649;53.712;9.680;2024-03-17T02:42:48;2.20;74.20
7876;DHT22;69649;53.712;9.680;2024-03-17T02:45:14;2.20;74.20
7876;DHT22;69649;53.712;9.680;2024-03-17T02:47:40;2.20;74.00
7876;DHT22;69649;53.712;9.680;2024-03-17T02:52:54;2.10;73.60
7876;DHT22;69649;53.712;9.680;2024-03-17T02:55:20;2.00;73.70
7876;DHT22;69649;53.712;9.680;2024-03-17T02:57:46;2.00;74.00
7876;DHT22;69649;53.712;9.680;2024-03-17T03:00:12;1.90;74.20
7876;DHT22;69649;53.712;9.680;2024-03-17T03:02:38;1.80;74.40
7876;DHT22;69649;53.712;9.680;2024-03-17T03:05:24;1.70;74.70
7876;DHT22;69649;53.712;9.680;2024-03-17T03:08:10;1.50;75.00
7876;DHT22;69649;53.712;9.680;2024-03-17T03:10:36;1.50;75.40
7876;DHT22;69649;53.712;9.680;2024-03-17T03:13:02;1.50;75.70
7876;DHT22;69649;53.712;9.680;2024-03-17T03:15:30;1.50;75.70
7876;DHT22;69649;53.712;9.680;2024-03-17T03:17:58;1.60;75.80
7876;DHT22;69649;53.712;9.680;2024-03-17T03:20:24;1.60;75.70
7876;DHT22;69649;53.712;9.680;2024-03-17T03:22:49;1.70;75.70
7876;DHT22;69649;53.712;9.680;2024-03-17T03:25:15;1.80;75.70
7876;DHT22;69649;53.712;9.680;2024-03-17T03:27:41;1.90;75.60
7876;DHT22;69649;53.712;9.680;2024-03-17T03:30:07;1.90;75.60
7876;DHT22;69649;53.712;9.680;2024-03-17T03:32:34;2.00;75.60
7876;DHT22;69649;53.712;9.680;2024-03-17T03:35:00;2.00;75.60
7876;DHT22;69649;53.712;9.680;2024-03-17T03:37:45;2.10;75.50
7876;DHT22;69649;53.712;9.680;2024-03-17T03:40:12;2.10;75.50
7876;DHT22;69649;53.712;9.680;2024-03-17T03:42:39;2.20;75.50
7876;DHT22;69649;53.712;9.680;2024-03-17T03:45:06;2.20;75.50
7876;DHT22;69649;53.712;9.680;2024-03-17T03:47:32;2.30;75.90
7876;DHT22;69649;53.712;9.680;2024-03-17T03:49:58;2.30;75.60
7876;DHT22;69649;53.712;9.680;2024-03-17T03:52:24;2.30;75.60
7876;DHT22;69649;53.712;9.680;2024-03-17T03:54:53;2.40;75.80
7876;DHT22;69649;53.712;9.680;2024-03-17T03:57:19;2.50;75.90
7876;DHT22;69649;53.712;9.680;2024-03-17T03:59:44;2.50;75.80
7876;DHT22;69649;53.712;9.680;2024-03-17T04:02:10;2.50;75.70
7876;DHT22;69649;53.712;9.680;2024-03-17T04:04:36;2.50;75.70
7876;DHT22;69649;53.712;9.680;2024-03-17T04:07:01;2.70;76.00
7876;DHT22;69649;53.712;9.680;2024-03-17T04:09:29;2.70;75.90
7876;DHT22;69649;53.712;9.680;2024-03-17T04:11:54;2.60;75.50
7876;DHT22;69649;53.712;9.680;2024-03-17T04:14:20;2.50;76.30
7876;DHT22;69649;53.712;9.680;2024-03-17T04:16:46;2.50;77.40
7876;DHT22;69649;53.712;9.680;2024-03-17T04:19:12;2.40;77.70
7876;DHT22;69649;53.712;9.680;2024-03-17T04:21:38;2.40;77.90
7876;DHT22;69649;53.712;9.680;2024-03-17T04:24:04;2.40;77.90
7876;DHT22;69649;53.712;9.680;2024-03-17T04:26:29;2.40;77.90
7876;DHT22;69649;53.712;9.680;2024-03-17T04:28:55;2.40;77.50
7876;DHT22;69649;53.712;9.680;2024-03-17T04:31:21;2.50;77.00
7876;DHT22;69649;53.712;9.680;2024-03-17T04:33:48;2.50;76.70
7876;DHT22;69649;53.712;9.680;2024-03-17T04:36:13;2.50;76.20
7876;DHT22;69649;53.712;9.680;2024-03-17T04:38:39;2.50;75.80
7876;DHT22;69649;53.712;9.680;2024-03-17T04:41:06;2.40;75.60
7876;DHT22;69649;53.712;9.680;2024-03-17T04:43:33;2.30;75.40
7876;DHT22;69649;53.712;9.680;2024-03-17T04:46:05;2.20;75.40
7876;DHT22;69649;53.712;9.680;2024-03-17T04:48:33;2.20;75.30
7876;DHT22;69649;53.712;9.680;2024-03-17T04:50:59;2.20;75.10
7876;DHT22;69649;53.712;9.680;2024-03-17T04:53:26;2.20;75.00
7876;DHT22;69649;53.712;9.680;2024-03-17T04:56:07;2.20;74.80
7876;DHT22;69649;53.712;9.680;2024-03-17T04:58:34;2.20;74.60
7876;DHT22;69649;53.712;9.680;2024-03-17T05:01:20;2.20;74.40
7876;DHT22;69649;53.712;9.680;2024-03-17T05:03:46;2.20;74.20
7876;DHT22;69649;53.712;9.680;2024-03-17T05:06:11;2.20;74.00
7876;DHT22;69649;53.712;9.680;2024-03-17T05:08:37;2.10;73.90
7876;DHT22;69649;53.712;9.680;2024-03-17T05:11:05;2.10;73.90
7876;DHT22;69649;53.712;9.680;2024-03-17T05:13:32;2.00;73.80
7876;DHT22;69649;53.712;9.680;2024-03-17T05:15:59;1.90;74.00
7876;DHT22;69649;53.712;9.680;2024-03-17T05:18:25;1.80;74.40
7876;DHT22;69649;53.712;9.680;2024-03-17T05:23:45;1.70;74.50
7876;DHT22;69649;53.712;9.680;2024-03-17T05:26:10;1.50;74.90
7876;DHT22;69649;53.712;9.680;2024-03-17T05:28:36;1.40;75.40
7876;DHT22;69649;53.712;9.680;2024-03-17T05:31:02;1.40;75.50
7876;DHT22;69649;53.712;9.680;2024-03-17T05:33:28;1.40;75.40
7876;DHT22;69649;53.712;9.680;2024-03-17T05:36:01;1.50;76.00
7876;DHT22;69649;53.712;9.680;2024-03-17T05:38:28;2.20;80.00
7876;DHT22;69649;53.712;9.680;2024-03-17T05:43:26;2.30;80.70
7876;DHT22;69649;53.712;9.680;2024-03-17T05:45:53;2.30;79.90
7876;DHT22;69649;53.712;9.680;2024-03-17T05:48:19;2.20;78.50
7876;DHT22;69649;53.712;9.680;2024-03-17T05:50:46;2.20;77.40
7876;DHT22;69649;53.712;9.680;2024-03-17T05:53:12;2.20;76.70
7876;DHT22;69649;53.712;9.680;2024-03-17T05:55:38;2.20;76.30
7876;DHT22;69649;53.712;9.680;2024-03-17T05:58:06;2.30;76.10
7876;DHT22;69649;53.712;9.680;2024-03-17T06:00:37;2.30;76.10
7876;DHT22;69649;53.712;9.680;2024-03-17T06:03:04;2.40;75.60
7876;DHT22;69649;53.712;9.680;2024-03-17T06:05:33;2.40;74.80
7876;DHT22;69649;53.712;9.680;2024-03-17T06:08:00;2.40;73.60
7876;DHT22;69649;53.712;9.680;2024-03-17T06:10:28;2.40;73.20
7876;DHT22;69649;53.712;9.680;2024-03-17T06:12:54;2.40;73.00
7876;DHT22;69649;53.712;9.680;2024-03-17T06:15:20;2.40;72.60
7876;DHT22;69649;53.712;9.680;2024-03-17T06:17:46;2.40;72.40
7876;DHT22;69649;53.712;9.680;2024-03-17T06:20:12;2.50;72.20
7876;DHT22;69649;53.712;9.680;2024-03-17T06:22:39;2.50;72.20
7876;DHT22;69649;53.712;9.680;2024-03-17T06:25:07;2.50;72.00
7876;DHT22;69649;53.712;9.680;2024-03-17T06:27:33;2.50;72.20
7876;DHT22;69649;53.712;9.680;2024-03-17T06:30:02;2.50;72.50
7876;DHT22;69649;53.712;9.680;2024-03-17T06:32:33;2.60;72.00
7876;DHT22;69649;53.712;9.680;2024-03-17T06:35:01;2.70;71.90
7876;DHT22;69649;53.712;9.680;2024-03-17T06:37:27;2.80;72.50
7876;DHT22;69649;53.712;9.680;2024-03-17T06:39:53;2.90;72.40
7876;DHT22;69649;53.712;9.680;2024-03-17T06:45:06;3.00;71.10
7876;DHT22;69649;53.712;9.680;2024-03-17T06:47:37;3.10;71.50
7876;DHT22;69649;53.712;9.680;2024-03-17T06:50:07;3.10;71.20
7876;DHT22;69649;53.712;9.680;2024-03-17T06:52:34;3.10;71.60
7876;DHT22;69649;53.712;9.680;2024-03-17T06:55:00;3.30;70.60
7876;DHT22;69649;53.712;9.680;2024-03-17T06:57:27;3.40;70.30
7876;DHT22;69649;53.712;9.680;2024-03-17T06:59:53;3.50;69.90
7876;DHT22;69649;53.712;9.680;2024-03-17T07:02:18;3.70;69.50
7876;DHT22;69649;53.712;9.680;2024-03-17T07:04:46;3.90;70.00
7876;DHT22;69649;53.712;9.680;2024-03-17T07:07:13;4.00;69.70
7876;DHT22;69649;53.712;9.680;2024-03-17T07:09:39;4.10;69.80
7876;DHT22;69649;53.712;9.680;2024-03-17T07:12:07;4.30;69.40
7876;DHT22;69649;53.712;9.680;2024-03-17T07:14:33;4.40;70.40
7876;DHT22;69649;53.712;9.680;2024-03-17T07:16:58;4.50;72.50
7876;DHT22;69649;53.712;9.680;2024-03-17T07:19:24;4.60;72.80
7876;DHT22;69649;53.712;9.680;2024-03-17T07:21:50;4.80;73.80
7876;DHT22;69649;53.712;9.680;2024-03-17T07:24:16;5.00;74.30
7876;DHT22;69649;53.712;9.680;2024-03-17T07:26:41;5.10;74.40
7876;DHT22;69649;53.712;9.680;2024-03-17T07:29:07;5.30;74.20
7876;DHT22;69649;53.712;9.680;2024-03-17T07:31:35;5.50;74.10
7876;DHT22;69649;53.712;9.680;2024-03-17T07:34:01;5.50;72.80
7876;DHT22;69649;53.712;9.680;2024-03-17T07:36:26;5.70;71.50
7876;DHT22;69649;53.712;9.680;2024-03-17T07:38:52;5.80;71.00
7876;DHT22;69649;53.712;9.680;2024-03-17T07:41:18;5.90;70.80
7876;DHT22;69649;53.712;9.680;2024-03-17T07:43:45;6.10;70.20
7876;DHT22;69649;53.712;9.680;2024-03-17T07:46:17;6.30;69.80
7876;DHT22;69649;53.712;9.680;2024-03-17T07:51:30;6.70;68.10
7876;DHT22;69649;53.712;9.680;2024-03-17T07:53:56;7.00;65.40
7876;DHT22;69649;53.712;9.680;2024-03-17T07:56:21;7.20;64.90
7876;DHT22;69649;53.712;9.680;2024-03-17T07:58:49;7.40;63.80
7876;DHT22;69649;53.712;9.680;2024-03-17T08:01:16;7.80;63.10
7876;DHT22;69649;53.712;9.680;2024-03-17T08:03:45;8.20;62.60
7876;DHT22;69649;53.712;9.680;2024-03-17T08:06:11;8.60;61.90
7876;DHT22;69649;53.712;9.680;2024-03-17T08:08:37;9.00;60.20
7876;DHT22;69649;53.712;9.680;2024-03-17T08:11:03;9.20;58.50
7876;DHT22;69649;53.712;9.680;2024-03-17T08:13:32;9.20;57.50
7876;DHT22;69649;53.712;9.680;2024-03-17T08:16:02;9.20;57.30
7876;DHT22;69649;53.712;9.680;2024-03-17T08:18:29;9.10;57.10
7876;DHT22;69649;53.712;9.680;2024-03-17T08:20:55;9.00;57.20
7876;DHT22;69649;53.712;9.680;2024-03-17T08:23:21;8.90;56.90
7876;DHT22;69649;53.712;9.680;2024-03-17T08:25:55;8.70;57.00
7876;DHT22;69649;53.712;9.680;2024-03-17T08:28:21;8.60;56.60
7876;DHT22;69649;53.712;9.680;2024-03-17T08:30:57;8.70;56.90
7876;DHT22;69649;53.712;9.680;2024-03-17T08:33:20;8.80;55.80
7876;DHT22;69649;53.712;9.680;2024-03-17T08:36:03;8.80;55.90
7876;DHT22;69649;53.712;9.680;2024-03-17T08:38:31;8.80;56.50
7876;DHT22;69649;53.712;9.680;2024-03-17T08:40:58;9.00;53.90
7876;DHT22;69649;53.712;9.680;2024-03-17T08:43:25;9.00;55.90
7876;DHT22;69649;53.712;9.680;2024-03-17T08:46:01;9.20;55.00
7876;DHT22;69649;53.712;9.680;2024-03-17T08:48:30;9.20;52.80
7876;DHT22;69649;53.712;9.680;2024-03-17T08:50:57;9.20;52.20
7876;DHT22;69649;53.712;9.680;2024-03-17T08:53:23;9.00;52.60
7876;DHT22;69649;53.712;9.680;2024-03-17T08:55:50;8.90;54.20
7876;DHT22;69649;53.712;9.680;2024-03-17T08:58:16;8.80;54.30
7876;DHT22;69649;53.712;9.680;2024-03-17T09:00:42;8.60;53.60
7876;DHT22;69649;53.712;9.680;2024-03-17T09:03:08;8.50;53.60
7876;DHT22;69649;53.712;9.680;2024-03-17T09:05:45;8.50;54.40
7876;DHT22;69649;53.712;9.680;2024-03-17T09:08:19;8.50;54.60
7876;DHT22;69649;53.712;9.680;2024-03-17T09:10:47;8.50;54.50
7876;DHT22;69649;53.712;9.680;2024-03-17T09:13:17;8.60;54.10
7876;DHT22;69649;53.712;9.680;2024-03-17T09:15:58;8.70;53.60
7876;DHT22;69649;53.712;9.680;2024-03-17T09:18:27;8.80;53.50
7876;DHT22;69649;53.712;9.680;2024-03-17T09:21:00;8.90;53.50
7876;DHT22;69649;53.712;9.680;2024-03-17T09:23:27;8.90;53.00
7876;DHT22;69649;53.712;9.680;2024-03-17T09:25:58;9.00;51.20
7876;DHT22;69649;53.712;9.680;2024-03-17T09:28:24;9.20;51.80
7876;DHT22;69649;53.712;9.680;2024-03-17T09:30:49;9.40;52.00
7876;DHT22;69649;53.712;9.680;2024-03-17T09:33:22;9.40;51.80
7876;DHT22;69649;53.712;9.680;2024-03-17T09:35:58;9.60;52.30
7876;DHT22;69649;53.712;9.680;2024-03-17T09:38:21;9.80;50.80
7876;DHT22;69649;53.712;9.680;2024-03-17T09:40:47;10.00;50.90
7876;DHT22;69649;53.712;9.680;2024-03-17T09:43:15;10.00;51.90
7876;DHT22;69649;53.712;9.680;2024-03-17T09:45:41;10.00;51.00
7876;DHT22;69649;53.712;9.680;2024-03-17T09:48:09;10.20;50.80
7876;DHT22;69649;53.712;9.680;2024-03-17T09:50:36;10.20;50.80
7876;DHT22;69649;53.712;9.680;2024-03-17T09:53:02;10.10;51.00
7876;DHT22;69649;53.712;9.680;2024-03-17T09:55:30;10.00;51.90
7876;DHT22;69649;53.712;9.680;2024-03-17T09:57:56;10.10;51.90
7876;DHT22;69649;53.712;9.680;2024-03-17T10:00:22;10.00;52.20
7876;DHT22;69649;53.712;9.680;2024-03-17T10:02:48;10.00;51.60
7876;DHT22;69649;53.712;9.680;2024-03-17T10:05:24;10.00;50.40
7876;DHT22;69649;53.712;9.680;2024-03-17T10:07:51;10.10;51.50
7876;DHT22;69649;53.712;9.680;2024-03-17T10:10:18;10.30;50.50
7876;DHT22;69649;53.712;9.680;2024-03-17T10:12:50;10.40;49.80
7876;DHT22;69649;53.712;9.680;2024-03-17T10:15:19;10.50;50.40
7876;DHT22;69649;53.712;9.680;2024-03-17T10:17:46;10.50;50.90
7876;DHT22;69649;53.712;9.680;2024-03-17T10:23:05;10.40;51.00
7876;DHT22;69649;53.712;9.680;2024-03-17T10:25:33;10.30;50.70
7876;DHT22;69649;53.712;9.680;2024-03-17T10:28:00;10.20;49.70
7876;DHT22;69649;53.712;9.680;2024-03-17T10:30:27;10.20;50.10
7876;DHT22;69649;53.712;9.680;2024-03-17T10:33:01;10.10;51.30
7876;DHT22;69649;53.712;9.680;2024-03-17T10:38:00;9.80;51.50
7876;DHT22;69649;53.712;9.680;2024-03-17T10:40:28;9.80;52.60
7876;DHT22;69649;53.712;9.680;2024-03-17T10:42:55;9.90;51.60
7876;DHT22;69649;53.712;9.680;2024-03-17T10:45:21;10.00;51.50
7876;DHT22;69649;53.712;9.680;2024-03-17T10:47:49;10.30;51.00
7876;DHT22;69649;53.712;9.680;2024-03-17T10:50:19;10.40;50.50
7876;DHT22;69649;53.712;9.680;2024-03-17T10:52:48;10.40;49.40
7876;DHT22;69649;53.712;9.680;2024-03-17T10:55:22;10.50;50.20
7876;DHT22;69649;53.712;9.680;2024-03-17T10:57:47;10.60;50.00
7876;DHT22;69649;53.712;9.680;2024-03-17T11:00:16;10.70;51.00
7876;DHT22;69649;53.712;9.680;2024-03-17T11:02:44;10.80;49.30
7876;DHT22;69649;53.712;9.680;2024-03-17T11:05:15;11.00;50.90
7876;DHT22;69649;53.712;9.680;2024-03-17T11:07:43;11.40;50.50
7876;DHT22;69649;53.712;9.680;2024-03-17T11:10:16;11.80;51.70
7876;DHT22;69649;53.712;9.680;2024-03-17T11:12:49;11.80;50.10
7876;DHT22;69649;53.712;9.680;2024-03-17T11:20:59;11.40;48.20
7876;DHT22;69649;53.712;9.680;2024-03-17T11:23:29;11.10;48.90
7876;DHT22;69649;53.712;9.680;2024-03-17T11:25:55;11.10;48.90
7876;DHT22;69649;53.712;9.680;2024-03-17T11:31:38;11.50;47.80
7876;DHT22;69649;53.712;9.680;2024-03-17T11:36:54;11.80;47.50
7876;DHT22;69649;53.712;9.680;2024-03-17T11:39:20;12.00;46.80
7876;DHT22;69649;53.712;9.680;2024-03-17T11:41:51;11.70;45.60
7876;DHT22;69649;53.712;9.680;2024-03-17T11:46:56;12.20;47.50
7876;DHT22;69649;53.712;9.680;2024-03-17T11:49:26;12.20;45.50
7876;DHT22;69649;53.712;9.680;2024-03-17T11:51:54;12.00;46.90
7876;DHT22;69649;53.712;9.680;2024-03-17T11:54:23;12.20;46.10
7876;DHT22;69649;53.712;9.680;2024-03-17T11:56:51;12.30;47.50
7876;DHT22;69649;53.712;9.680;2024-03-17T11:59:20;12.40;46.70
7876;DHT22;69649;53.712;9.680;2024-03-17T12:01:47;12.30;46.30
7876;DHT22;69649;53.712;9.680;2024-03-17T12:04:14;12.50;47.50
7876;DHT22;69649;53.712;9.680;2024-03-17T12:06:49;12.70;49.40
7876;DHT22;69649;53.712;9.680;2024-03-17T12:09:27;13.10;47.90
7876;DHT22;69649;53.712;9.680;2024-03-17T12:12:04;13.50;46.00
7876;DHT22;69649;53.712;9.680;2024-03-17T12:14:31;13.50;45.90
7876;DHT22;69649;53.712;9.680;2024-03-17T12:16:59;13.20;45.70
7876;DHT22;69649;53.712;9.680;2024-03-17T12:19:25;13.10;47.30
7876;DHT22;69649;53.712;9.680;2024-03-17T12:21:56;13.10;47.10
7876;DHT22;69649;53.712;9.680;2024-03-17T12:24:24;13.20;46.30
7876;DHT22;69649;53.712;9.680;2024-03-17T12:26:51;13.40;46.80
7876;DHT22;69649;53.712;9.680;2024-03-17T12:29:35;13.70;44.60
7876;DHT22;69649;53.712;9.680;2024-03-17T12:32:04;13.90;44.30
7876;DHT22;69649;53.712;9.680;2024-03-17T12:34:33;14.00;44.50
7876;DHT22;69649;53.712;9.680;2024-03-17T12:37:00;14.20;45.80
7876;DHT22;69649;53.712;9.680;2024-03-17T12:42:15;14.10;45.30
7876;DHT22;69649;53.712;9.680;2024-03-17T12:44:54;14.10;45.90
7876;DHT22;69649;53.712;9.680;2024-03-17T12:47:22;14.00;46.60
7876;DHT22;69649;53.712;9.680;2024-03-17T12:49:52;13.90;46.10
7876;DHT22;69649;53.712;9.680;2024-03-17T12:52:32;13.90;44.90
7876;DHT22;69649;53.712;9.680;2024-03-17T12:55:07;13.90;45.90
7876;DHT22;69649;53.712;9.680;2024-03-17T13:03:30;13.10;45.90
7876;DHT22;69649;53.712;9.680;2024-03-17T13:05:57;13.00;45.30
7876;DHT22;69649;53.712;9.680;2024-03-17T13:08:23;13.10;45.50
7876;DHT22;69649;53.712;9.680;2024-03-17T13:10:49;13.30;43.60
7876;DHT22;69649;53.712;9.680;2024-03-17T13:13:15;13.40;43.40
7876;DHT22;69649;53.712;9.680;2024-03-17T13:15:42;13.50;44.10
7876;DHT22;69649;53.712;9.680;2024-03-17T13:18:08;13.50;43.60
7876;DHT22;69649;53.712;9.680;2024-03-17T13:20:34;13.70;44.00
7876;DHT22;69649;53.712;9.680;2024-03-17T13:23:01;13.70;43.60
7876;DHT22;69649;53.712;9.680;2024-03-17T13:25:30;13.70;44.10
7876;DHT22;69649;53.712;9.680;2024-03-17T13:27:58;13.80;44.30
7876;DHT22;69649;53.712;9.680;2024-03-17T13:30:24;13.90;44.20
7876;DHT22;69649;53.712;9.680;2024-03-17T13:32:52;14.10;44.10
7876;DHT22;69649;53.712;9.680;2024-03-17T13:35:27;14.30;43.40
7876;DHT22;69649;53.712;9.680;2024-03-17T13:37:56;14.60;41.90
7876;DHT22;69649;53.712;9.680;2024-03-17T13:40:23;14.90;41.50
7876;DHT22;69649;53.712;9.680;2024-03-17T13:42:51;15.00;42.60
7876;DHT22;69649;53.712;9.680;2024-03-17T13:45:18;15.20;40.90
7876;DHT22;69649;53.712;9.680;2024-03-17T13:47:47;15.10;41.80
7876;DHT22;69649;53.712;9.680;2024-03-17T13:50:13;15.30;40.30
7876;DHT22;69649;53.712;9.680;2024-03-17T13:52:40;15.30;40.60
7876;DHT22;69649;53.712;9.680;2024-03-17T13:55:12;15.20;42.70
7876;DHT22;69649;53.712;9.680;2024-03-17T13:57:38;15.00;40.80
7876;DHT22;69649;53.712;9.680;2024-03-17T14:00:05;14.80;42.00
7876;DHT22;69649;53.712;9.680;2024-03-17T14:02:33;14.60;41.80
7876;DHT22;69649;53.712;9.680;2024-03-17T14:04:59;14.30;42.00
7876;DHT22;69649;53.712;9.680;2024-03-17T14:07:25;14.00;42.50
7876;DHT22;69649;53.712;9.680;2024-03-17T14:09:51;13.90;43.00
7876;DHT22;69649;53.712;9.680;2024-03-17T14:12:17;13.90;42.70
7876;DHT22;69649;53.712;9.680;2024-03-17T14:14:43;13.90;42.50
7876;DHT22;69649;53.712;9.680;2024-03-17T14:17:09;13.90;42.20
7876;DHT22;69649;53.712;9.680;2024-03-17T14:19:35;13.80;42.90
7876;DHT22;69649;53.712;9.680;2024-03-17T14:22:01;13.90;43.60
7876;DHT22;69649;53.712;9.680;2024-03-17T14:24:27;13.60;42.20
7876;DHT22;69649;53.712;9.680;2024-03-17T14:26:54;13.50;41.90
7876;DHT22;69649;53.712;9.680;2024-03-17T14:29:20;13.60;43.00
7876;DHT22;69649;53.712;9.680;2024-03-17T14:31:45;13.90;42.20
7876;DHT22;69649;53.712;9.680;2024-03-17T14:34:11;14.30;43.30
7876;DHT22;69649;53.712;9.680;2024-03-17T14:36:37;14.70;42.10
7876;DHT22;69649;53.712;9.680;2024-03-17T14:39:03;14.50;42.90
7876;DHT22;69649;53.712;9.680;2024-03-17T14:41:30;14.40;43.60
7876;DHT22;69649;53.712;9.680;2024-03-17T14:43:58;14.80;43.90
7876;DHT22;69649;53.712;9.680;2024-03-17T14:46:24;15.30;42.10
7876;DHT22;69649;53.712;9.680;2024-03-17T14:48:50;15.40;42.30
7876;DHT22;69649;53.712;9.680;2024-03-17T14:51:19;16.00;41.90
7876;DHT22;69649;53.712;9.680;2024-03-17T14:53:47;16.80;40.70
7876;DHT22;69649;53.712;9.680;2024-03-17T14:56:18;17.60;39.80
7876;DHT22;69649;53.712;9.680;2024-03-17T14:58:44;17.80;39.10
7876;DHT22;69649;53.712;9.680;2024-03-17T15:01:12;17.40;39.40
7876;DHT22;69649;53.712;9.680;2024-03-17T15:03:38;17.80;39.50
7876;DHT22;69649;53.712;9.680;2024-03-17T15:06:14;18.10;39.50
7876;DHT22;69649;53.712;9.680;2024-03-17T15:08:41;19.10;38.60
7876;DHT22;69649;53.712;9.680;2024-03-17T15:11:10;19.70;37.70
7876;DHT22;69649;53.712;9.680;2024-03-17T15:13:36;20.20;38.00
7876;DHT22;69649;53.712;9.680;2024-03-17T15:16:05;20.40;37.60
7876;DHT22;69649;53.712;9.680;2024-03-17T15:18:32;20.50;36.40
7876;DHT22;69649;53.712;9.680;2024-03-17T15:21:00;19.60;36.90
7876;DHT22;69649;53.712;9.680;2024-03-17T15:23:29;19.10;38.10
7876;DHT22;69649;53.712;9.680;2024-03-17T15:26:05;18.50;39.00
7876;DHT22;69649;53.712;9.680;2024-03-17T15:28:34;18.00;39.30
7876;DHT22;69649;53.712;9.680;2024-03-17T15:31:07;18.60;38.80
7876;DHT22;69649;53.712;9.680;2024-03-17T15:33:35;19.20;38.50
7876;DHT22;69649;53.712;9.680;2024-03-17T15:36:04;19.90;37.50
7876;DHT22;69649;53.712;9.680;2024-03-17T15:38:31;19.90;37.20
7876;DHT22;69649;53.712;9.680;2024-03-17T15:41:05;19.70;37.80
7876;DHT22;69649;53.712;9.680;2024-03-17T15:43:38;19.70;37.70
7876;DHT22;69649;53.712;9.680;2024-03-17T15:46:14;19.90;37.40
7876;DHT22;69649;53.712;9.680;2024-03-17T15:48:41;19.40;37.70
7876;DHT22;69649;53.712;9.680;2024-03-17T15:51:07;18.50;38.70
7876;DHT22;69649;53.712;9.680;2024-03-17T15:53:33;17.00;39.10
7876;DHT22;69649;53.712;9.680;2024-03-17T15:56:00;16.30;41.10
7876;DHT22;69649;53.712;9.680;2024-03-17T15:58:28;15.60;41.70
7876;DHT22;69649;53.712;9.680;2024-03-17T16:00:54;14.90;42.40
7876;DHT22;69649;53.712;9.680;2024-03-17T16:03:21;14.40;44.40
7876;DHT22;69649;53.712;9.680;2024-03-17T16:05:51;13.60;44.60
7876;DHT22;69649;53.712;9.680;2024-03-17T16:08:18;13.00;45.50
7876;DHT22;69649;53.712;9.680;2024-03-17T16:10:49;12.80;46.50
7876;DHT22;69649;53.712;9.680;2024-03-17T16:13:17;12.50;46.20
7876;DHT22;69649;53.712;9.680;2024-03-17T16:15:44;12.20;46.50
7876;DHT22;69649;53.712;9.680;2024-03-17T16:18:12;11.90;46.50
7876;DHT22;69649;53.712;9.680;2024-03-17T16:23:18;11.50;47.70
7876;DHT22;69649;53.712;9.680;2024-03-17T16:25:48;11.40;48.00
7876;DHT22;69649;53.712;9.680;2024-03-17T16:28:16;11.20;48.00
7876;DHT22;69649;53.712;9.680;2024-03-17T16:30:42;11.10;48.40
7876;DHT22;69649;53.712;9.680;2024-03-17T16:33:08;11.10;48.60
7876;DHT22;69649;53.712;9.680;2024-03-17T16:35:35;11.00;48.80
7876;DHT22;69649;53.712;9.680;2024-03-17T16:38:04;10.90;49.40
7876;DHT22;69649;53.712;9.680;2024-03-17T16:40:30;10.80;48.70
7876;DHT22;69649;53.712;9.680;2024-03-17T16:42:56;10.60;49.60